sensor_id;sensor_type;location;lat;lon;timestamp;P1;durP1;ratioP1;P2;durP2;ratioP2
42104;SDS011;70664;51.472;5.712;2023-09-19T00:00:45;4.50;;;2.60;;
42104;SDS011;70664;51.472;5.712;2023-09-19T00:03:14;5.47;;;2.50;;
42104;SDS011;70664;51.472;5.712;2023-09-19T00:05:41;5.15;;;2.35;;
42104;SDS011;70664;51.472;5.712;2023-09-19T00:08:10;4.45;;;2.58;;
42104;SDS011;70664;51.472;5.712;2023-09-19T00:10:38;6.43;;;2.40;;
42104;SDS011;70664;51.472;5.712;2023-09-19T00:13:06;4.65;;;2.45;;
42104;SDS011;70664;51.472;5.712;2023-09-19T00:15:36;7.25;;;2.42;;
42104;SDS011;70664;51.472;5.712;2023-09-19T00:18:05;6.22;;;2.45;;
42104;SDS011;70664;51.472;5.712;2023-09-19T00:20:32;4.85;;;2.45;;
42104;SDS011;70664;51.472;5.712;2023-09-19T00:23:01;6.80;;;2.35;;
42104;SDS011;70664;51.472;5.712;2023-09-19T00:25:37;4.88;;;2.28;;
42104;SDS011;70664;51.472;5.712;2023-09-19T00:28:03;4.93;;;2.47;;
42104;SDS011;70664;51.472;5.712;2023-09-19T00:30:33;7.35;;;2.63;;
42104;SDS011;70664;51.472;5.712;2023-09-19T00:32:59;4.30;;;2.03;;
42104;SDS011;70664;51.472;5.712;2023-09-19T00:35:26;5.53;;;2.33;;
42104;SDS011;70664;51.472;5.712;2023-09-19T00:37:52;5.40;;;2.22;;
42104;SDS011;70664;51.472;5.712;2023-09-19T00:40:19;6.10;;;2.58;;
42104;SDS011;70664;51.472;5.712;2023-09-19T00:42:46;4.75;;;2.15;;
42104;SDS011;70664;51.472;5.712;2023-09-19T00:45:14;4.35;;;2.35;;
42104;SDS011;70664;51.472;5.712;2023-09-19T00:47:45;5.38;;;2.63;;
42104;SDS011;70664;51.472;5.712;2023-09-19T00:50:16;4.43;;;2.30;;
42104;SDS011;70664;51.472;5.712;2023-09-19T00:52:48;5.28;;;2.67;;
42104;SDS011;70664;51.472;5.712;2023-09-19T00:55:18;5.93;;;2.33;;
42104;SDS011;70664;51.472;5.712;2023-09-19T00:57:45;4.20;;;2.17;;
42104;SDS011;70664;51.472;5.712;2023-09-19T01:00:12;4.75;;;2.10;;
42104;SDS011;70664;51.472;5.712;2023-09-19T01:02:41;5.40;;;2.22;;
42104;SDS011;70664;51.472;5.712;2023-09-19T01:05:08;3.53;;;2.20;;
42104;SDS011;70664;51.472;5.712;2023-09-19T01:07:35;4.80;;;2.17;;
42104;SDS011;70664;51.472;5.712;2023-09-19T01:10:05;4.40;;;2.03;;
42104;SDS011;70664;51.472;5.712;2023-09-19T01:21:03;6.47;;;2.30;;
42104;SDS011;70664;51.472;5.712;2023-09-19T01:29:48;6.05;;;2.30;;
42104;SDS011;70664;51.472;5.712;2023-09-19T01:32:23;3.92;;;1.98;;
42104;SDS011;70664;51.472;5.712;2023-09-19T01:34:52;6.00;;;2.60;;
42104;SDS011;70664;51.472;5.712;2023-09-19T01:37:23;5.13;;;2.30;;
42104;SDS011;70664;51.472;5.712;2023-09-19T01:40:09;4.85;;;2.20;;
42104;SDS011;70664;51.472;5.712;2023-09-19T01:48:35;4.60;;;2.25;;
42104;SDS011;70664;51.472;5.712;2023-09-19T01:51:51;5.20;;;2.25;;
42104;SDS011;70664;51.472;5.712;2023-09-19T01:54:30;4.38;;;2.40;;
42104;SDS011;70664;51.472;5.712;2023-09-19T01:57:07;5.90;;;2.47;;
42104;SDS011;70664;51.472;5.712;2023-09-19T01:59:50;3.72;;;2.05;;
42104;SDS011;70664;51.472;5.712;2023-09-19T02:02:24;3.65;;;1.88;;
42104;SDS011;70664;51.472;5.712;2023-09-19T02:04:52;3.30;;;2.03;;
42104;SDS011;70664;51.472;5.712;2023-09-19T02:07:20;4.93;;;2.00;;
42104;SDS011;70664;51.472;5.712;2023-09-19T02:09:47;4.28;;;2.08;;
42104;SDS011;70664;51.472;5.712;2023-09-19T02:12:13;3.40;;;1.90;;
42104;SDS011;70664;51.472;5.712;2023-09-19T02:14:40;4.90;;;2.30;;
42104;SDS011;70664;51.472;5.712;2023-09-19T02:17:05;5.95;;;1.80;;
42104;SDS011;70664;51.472;5.712;2023-09-19T02:19:32;5.75;;;2.20;;
42104;SDS011;70664;51.472;5.712;2023-09-19T02:21:59;3.88;;;1.88;;
42104;SDS011;70664;51.472;5.712;2023-09-19T02:24:28;5.20;;;2.00;;
42104;SDS011;70664;51.472;5.712;2023-09-19T02:26:54;4.85;;;2.17;;
42104;SDS011;70664;51.472;5.712;2023-09-19T02:29:20;4.57;;;2.08;;
42104;SDS011;70664;51.472;5.712;2023-09-19T02:31:47;5.25;;;2.25;;
42104;SDS011;70664;51.472;5.712;2023-09-19T02:34:13;6.10;;;2.35;;
42104;SDS011;70664;51.472;5.712;2023-09-19T02:36:41;4.55;;;1.80;;
42104;SDS011;70664;51.472;5.712;2023-09-19T02:39:09;5.43;;;2.20;;
42104;SDS011;70664;51.472;5.712;2023-09-19T02:41:36;4.32;;;2.00;;
42104;SDS011;70664;51.472;5.712;2023-09-19T02:44:02;3.83;;;2.03;;
42104;SDS011;70664;51.472;5.712;2023-09-19T02:46:32;4.63;;;2.17;;
42104;SDS011;70664;51.472;5.712;2023-09-19T02:48:58;6.85;;;2.25;;
42104;SDS011;70664;51.472;5.712;2023-09-19T02:51:24;3.17;;;1.85;;
42104;SDS011;70664;51.472;5.712;2023-09-19T02:53:50;6.20;;;2.25;;
42104;SDS011;70664;51.472;5.712;2023-09-19T02:56:19;3.72;;;1.90;;
42104;SDS011;70664;51.472;5.712;2023-09-19T02:58:45;5.95;;;2.50;;
42104;SDS011;70664;51.472;5.712;2023-09-19T03:01:11;4.82;;;2.15;;
42104;SDS011;70664;51.472;5.712;2023-09-19T03:03:37;4.90;;;1.88;;
42104;SDS011;70664;51.472;5.712;2023-09-19T03:06:04;3.30;;;2.00;;
42104;SDS011;70664;51.472;5.712;2023-09-19T03:08:33;4.82;;;1.88;;
42104;SDS011;70664;51.472;5.712;2023-09-19T03:11:01;3.90;;;2.05;;
42104;SDS011;70664;51.472;5.712;2023-09-19T03:13:30;4.82;;;2.38;;
42104;SDS011;70664;51.472;5.712;2023-09-19T03:15:57;4.68;;;1.92;;
42104;SDS011;70664;51.472;5.712;2023-09-19T03:18:26;3.95;;;1.95;;
42104;SDS011;70664;51.472;5.712;2023-09-19T03:20:55;2.75;;;1.80;;
42104;SDS011;70664;51.472;5.712;2023-09-19T03:23:21;5.00;;;1.90;;
42104;SDS011;70664;51.472;5.712;2023-09-19T03:25:48;2.97;;;1.80;;
42104;SDS011;70664;51.472;5.712;2023-09-19T03:28:14;3.72;;;2.13;;
42104;SDS011;70664;51.472;5.712;2023-09-19T03:30:41;3.70;;;2.05;;
42104;SDS011;70664;51.472;5.712;2023-09-19T03:33:07;4.05;;;1.90;;
42104;SDS011;70664;51.472;5.712;2023-09-19T03:35:33;4.28;;;2.00;;
42104;SDS011;70664;51.472;5.712;2023-09-19T03:37:59;4.07;;;1.67;;
42104;SDS011;70664;51.472;5.712;2023-09-19T03:40:25;3.17;;;1.80;;
42104;SDS011;70664;51.472;5.712;2023-09-19T03:42:51;4.88;;;2.17;;
42104;SDS011;70664;51.472;5.712;2023-09-19T03:45:17;5.45;;;1.65;;
42104;SDS011;70664;51.472;5.712;2023-09-19T03:47:43;4.80;;;2.10;;
42104;SDS011;70664;51.472;5.712;2023-09-19T03:50:12;4.28;;;2.10;;
42104;SDS011;70664;51.472;5.712;2023-09-19T03:52:40;3.67;;;1.90;;
42104;SDS011;70664;51.472;5.712;2023-09-19T03:55:06;4.68;;;2.00;;
42104;SDS011;70664;51.472;5.712;2023-09-19T03:57:32;3.40;;;1.67;;
42104;SDS011;70664;51.472;5.712;2023-09-19T04:00:01;5.32;;;1.90;;
42104;SDS011;70664;51.472;5.712;2023-09-19T04:02:29;3.80;;;1.80;;
42104;SDS011;70664;51.472;5.712;2023-09-19T04:04:58;3.55;;;1.85;;
42104;SDS011;70664;51.472;5.712;2023-09-19T04:07:24;3.80;;;1.95;;
42104;SDS011;70664;51.472;5.712;2023-09-19T04:09:53;4.47;;;2.20;;
42104;SDS011;70664;51.472;5.712;2023-09-19T04:12:20;4.80;;;1.88;;
42104;SDS011;70664;51.472;5.712;2023-09-19T04:14:46;4.20;;;1.85;;
42104;SDS011;70664;51.472;5.712;2023-09-19T04:17:12;4.78;;;2.08;;
42104;SDS011;70664;51.472;5.712;2023-09-19T04:19:38;4.60;;;1.88;;
42104;SDS011;70664;51.472;5.712;2023-09-19T04:22:03;4.10;;;2.00;;
42104;SDS011;70664;51.472;5.712;2023-09-19T04:24:29;3.50;;;1.70;;
42104;SDS011;70664;51.472;5.712;2023-09-19T04:26:57;3.15;;;1.70;;
42104;SDS011;70664;51.472;5.712;2023-09-19T04:29:24;4.32;;;1.73;;
42104;SDS011;70664;51.472;5.712;2023-09-19T04:31:51;3.97;;;1.80;;
42104;SDS011;70664;51.472;5.712;2023-09-19T04:34:17;3.35;;;1.70;;
42104;SDS011;70664;51.472;5.712;2023-09-19T04:36:43;4.20;;;1.65;;
42104;SDS011;70664;51.472;5.712;2023-09-19T04:39:09;3.63;;;1.67;;
42104;SDS011;70664;51.472;5.712;2023-09-19T04:41:37;3.38;;;1.75;;
42104;SDS011;70664;51.472;5.712;2023-09-19T04:44:06;4.50;;;1.98;;
42104;SDS011;70664;51.472;5.712;2023-09-19T04:46:33;3.35;;;1.70;;
42104;SDS011;70664;51.472;5.712;2023-09-19T04:48:59;3.65;;;1.88;;
42104;SDS011;70664;51.472;5.712;2023-09-19T04:51:25;3.85;;;1.83;;
42104;SDS011;70664;51.472;5.712;2023-09-19T04:53:54;8.40;;;1.70;;
42104;SDS011;70664;51.472;5.712;2023-09-19T04:56:20;3.25;;;1.65;;
42104;SDS011;70664;51.472;5.712;2023-09-19T04:58:46;3.45;;;1.90;;
42104;SDS011;70664;51.472;5.712;2023-09-19T05:01:12;2.80;;;1.60;;
42104;SDS011;70664;51.472;5.712;2023-09-19T05:03:40;4.82;;;1.75;;
42104;SDS011;70664;51.472;5.712;2023-09-19T05:06:06;3.63;;;1.77;;
42104;SDS011;70664;51.472;5.712;2023-09-19T05:08:31;4.80;;;2.00;;
42104;SDS011;70664;51.472;5.712;2023-09-19T05:10:57;4.47;;;1.70;;
42104;SDS011;70664;51.472;5.712;2023-09-19T05:13:26;3.53;;;1.80;;
42104;SDS011;70664;51.472;5.712;2023-09-19T05:15:52;3.70;;;1.70;;
42104;SDS011;70664;51.472;5.712;2023-09-19T05:18:18;4.68;;;2.00;;
42104;SDS011;70664;51.472;5.712;2023-09-19T05:20:43;6.53;;;1.98;;
42104;SDS011;70664;51.472;5.712;2023-09-19T05:23:09;3.55;;;1.80;;
42104;SDS011;70664;51.472;5.712;2023-09-19T05:25:39;3.42;;;1.80;;
42104;SDS011;70664;51.472;5.712;2023-09-19T05:28:06;3.53;;;1.55;;
42104;SDS011;70664;51.472;5.712;2023-09-19T05:30:33;3.15;;;1.50;;
42104;SDS011;70664;51.472;5.712;2023-09-19T05:33:01;3.55;;;1.55;;
42104;SDS011;70664;51.472;5.712;2023-09-19T05:35:29;4.20;;;2.00;;
42104;SDS011;70664;51.472;5.712;2023-09-19T05:37:56;3.15;;;1.58;;
42104;SDS011;70664;51.472;5.712;2023-09-19T05:40:23;3.28;;;1.70;;
42104;SDS011;70664;51.472;5.712;2023-09-19T05:42:49;4.97;;;1.73;;
42104;SDS011;70664;51.472;5.712;2023-09-19T05:45:15;3.10;;;1.63;;
42104;SDS011;70664;51.472;5.712;2023-09-19T05:47:51;4.25;;;2.00;;
42104;SDS011;70664;51.472;5.712;2023-09-19T05:50:22;2.45;;;1.75;;
42104;SDS011;70664;51.472;5.712;2023-09-19T05:52:53;4.15;;;1.80;;
42104;SDS011;70664;51.472;5.712;2023-09-19T05:55:21;3.97;;;1.70;;
42104;SDS011;70664;51.472;5.712;2023-09-19T05:57:50;3.55;;;1.63;;
42104;SDS011;70664;51.472;5.712;2023-09-19T06:00:20;3.83;;;1.90;;
42104;SDS011;70664;51.472;5.712;2023-09-19T06:05:18;4.65;;;1.92;;
42104;SDS011;70664;51.472;5.712;2023-09-19T06:07:45;3.40;;;1.73;;
42104;SDS011;70664;51.472;5.712;2023-09-19T06:10:11;4.45;;;1.67;;
42104;SDS011;70664;51.472;5.712;2023-09-19T06:12:39;4.55;;;1.90;;
42104;SDS011;70664;51.472;5.712;2023-09-19T06:15:08;4.68;;;1.70;;
42104;SDS011;70664;51.472;5.712;2023-09-19T06:17:40;5.07;;;1.83;;
42104;SDS011;70664;51.472;5.712;2023-09-19T06:20:07;3.15;;;1.58;;
42104;SDS011;70664;51.472;5.712;2023-09-19T06:22:43;4.55;;;1.80;;
42104;SDS011;70664;51.472;5.712;2023-09-19T06:25:11;3.35;;;1.63;;
42104;SDS011;70664;51.472;5.712;2023-09-19T06:27:44;4.85;;;1.90;;
42104;SDS011;70664;51.472;5.712;2023-09-19T06:30:11;5.13;;;1.80;;
42104;SDS011;70664;51.472;5.712;2023-09-19T06:32:37;3.90;;;1.70;;
42104;SDS011;70664;51.472;5.712;2023-09-19T06:35:04;4.68;;;1.70;;
42104;SDS011;70664;51.472;5.712;2023-09-19T06:37:36;4.30;;;1.80;;
42104;SDS011;70664;51.472;5.712;2023-09-19T06:40:12;3.90;;;1.67;;
42104;SDS011;70664;51.472;5.712;2023-09-19T06:42:43;3.40;;;1.53;;
42104;SDS011;70664;51.472;5.712;2023-09-19T06:45:11;4.15;;;1.90;;
42104;SDS011;70664;51.472;5.712;2023-09-19T06:47:47;4.53;;;1.77;;
42104;SDS011;70664;51.472;5.712;2023-09-19T06:50:15;3.83;;;1.67;;
42104;SDS011;70664;51.472;5.712;2023-09-19T06:52:44;3.20;;;1.67;;
42104;SDS011;70664;51.472;5.712;2023-09-19T06:55:14;4.32;;;1.92;;
42104;SDS011;70664;51.472;5.712;2023-09-19T06:57:41;4.50;;;1.60;;
42104;SDS011;70664;51.472;5.712;2023-09-19T07:00:09;3.67;;;1.63;;
42104;SDS011;70664;51.472;5.712;2023-09-19T07:02:59;2.83;;;1.50;;
42104;SDS011;70664;51.472;5.712;2023-09-19T07:05:39;5.07;;;1.67;;
42104;SDS011;70664;51.472;5.712;2023-09-19T07:08:06;4.13;;;1.50;;
42104;SDS011;70664;51.472;5.712;2023-09-19T07:10:36;4.30;;;1.88;;
42104;SDS011;70664;51.472;5.712;2023-09-19T07:13:03;4.85;;;1.77;;
42104;SDS011;70664;51.472;5.712;2023-09-19T07:15:37;3.72;;;1.88;;
42104;SDS011;70664;51.472;5.712;2023-09-19T07:18:05;5.15;;;1.80;;
42104;SDS011;70664;51.472;5.712;2023-09-19T07:20:34;4.20;;;1.85;;
42104;SDS011;70664;51.472;5.712;2023-09-19T07:23:00;4.55;;;1.45;;
42104;SDS011;70664;51.472;5.712;2023-09-19T07:25:26;4.57;;;2.05;;
42104;SDS011;70664;51.472;5.712;2023-09-19T07:27:54;6.18;;;2.28;;
42104;SDS011;70664;51.472;5.712;2023-09-19T07:30:21;2.72;;;1.67;;
42104;SDS011;70664;51.472;5.712;2023-09-19T07:32:48;7.85;;;1.80;;
42104;SDS011;70664;51.472;5.712;2023-09-19T07:35:14;4.40;;;1.63;;
42104;SDS011;70664;51.472;5.712;2023-09-19T07:37:40;5.65;;;1.88;;
42104;SDS011;70664;51.472;5.712;2023-09-19T07:40:06;8.50;;;1.80;;
42104;SDS011;70664;51.472;5.712;2023-09-19T07:42:33;5.93;;;1.92;;
42104;SDS011;70664;51.472;5.712;2023-09-19T07:45:00;4.85;;;1.52;;
42104;SDS011;70664;51.472;5.712;2023-09-19T07:47:26;4.85;;;1.90;;
42104;SDS011;70664;51.472;5.712;2023-09-19T07:49:55;5.13;;;1.98;;
42104;SDS011;70664;51.472;5.712;2023-09-19T07:52:21;4.25;;;1.98;;
42104;SDS011;70664;51.472;5.712;2023-09-19T07:54:47;4.70;;;1.70;;
42104;SDS011;70664;51.472;5.712;2023-09-19T07:57:14;3.58;;;1.58;;
42104;SDS011;70664;51.472;5.712;2023-09-19T07:59:41;3.38;;;1.50;;
42104;SDS011;70664;51.472;5.712;2023-09-19T08:02:07;5.45;;;1.85;;
42104;SDS011;70664;51.472;5.712;2023-09-19T08:04:40;5.00;;;1.88;;
42104;SDS011;70664;51.472;5.712;2023-09-19T08:07:11;5.78;;;1.63;;
42104;SDS011;70664;51.472;5.712;2023-09-19T08:09:41;5.45;;;1.95;;
42104;SDS011;70664;51.472;5.712;2023-09-19T08:12:11;3.30;;;1.73;;
42104;SDS011;70664;51.472;5.712;2023-09-19T08:14:37;4.10;;;1.90;;
42104;SDS011;70664;51.472;5.712;2023-09-19T08:17:03;3.95;;;1.63;;
42104;SDS011;70664;51.472;5.712;2023-09-19T08:19:30;4.82;;;1.67;;
42104;SDS011;70664;51.472;5.712;2023-09-19T08:21:57;4.75;;;2.10;;
42104;SDS011;70664;51.472;5.712;2023-09-19T08:24:24;4.18;;;1.90;;
42104;SDS011;70664;51.472;5.712;2023-09-19T08:26:54;5.93;;;1.80;;
42104;SDS011;70664;51.472;5.712;2023-09-19T08:29:21;2.67;;;1.45;;
42104;SDS011;70664;51.472;5.712;2023-09-19T08:31:55;3.78;;;1.85;;
42104;SDS011;70664;51.472;5.712;2023-09-19T08:34:24;4.30;;;1.33;;
42104;SDS011;70664;51.472;5.712;2023-09-19T08:36:51;10.57;;;2.40;;
42104;SDS011;70664;51.472;5.712;2023-09-19T08:39:21;6.75;;;2.22;;
42104;SDS011;70664;51.472;5.712;2023-09-19T08:41:48;9.25;;;2.15;;
42104;SDS011;70664;51.472;5.712;2023-09-19T08:44:14;9.02;;;2.17;;
42104;SDS011;70664;51.472;5.712;2023-09-19T08:46:41;7.93;;;2.22;;
42104;SDS011;70664;51.472;5.712;2023-09-19T08:49:11;9.55;;;2.40;;
42104;SDS011;70664;51.472;5.712;2023-09-19T08:52:10;9.05;;;2.33;;
42104;SDS011;70664;51.472;5.712;2023-09-19T08:55:07;12.50;;;2.40;;
42104;SDS011;70664;51.472;5.712;2023-09-19T08:57:38;9.77;;;2.20;;
42104;SDS011;70664;51.472;5.712;2023-09-19T09:00:07;9.30;;;2.58;;
42104;SDS011;70664;51.472;5.712;2023-09-19T09:02:40;9.18;;;2.10;;
42104;SDS011;70664;51.472;5.712;2023-09-19T09:05:08;9.70;;;2.90;;
42104;SDS011;70664;51.472;5.712;2023-09-19T09:07:36;13.05;;;2.45;;
42104;SDS011;70664;51.472;5.712;2023-09-19T09:10:03;11.90;;;2.78;;
42104;SDS011;70664;51.472;5.712;2023-09-19T09:12:29;8.45;;;2.13;;
42104;SDS011;70664;51.472;5.712;2023-09-19T09:14:56;10.05;;;2.53;;
42104;SDS011;70664;51.472;5.712;2023-09-19T09:17:25;12.95;;;2.60;;
42104;SDS011;70664;51.472;5.712;2023-09-19T09:19:54;9.70;;;2.63;;
42104;SDS011;70664;51.472;5.712;2023-09-19T09:22:21;13.20;;;2.92;;
42104;SDS011;70664;51.472;5.712;2023-09-19T09:24:56;14.10;;;2.20;;
42104;SDS011;70664;51.472;5.712;2023-09-19T09:27:23;5.93;;;1.90;;
42104;SDS011;70664;51.472;5.712;2023-09-19T09:29:50;8.00;;;2.38;;
42104;SDS011;70664;51.472;5.712;2023-09-19T09:34:56;9.23;;;2.50;;
42104;SDS011;70664;51.472;5.712;2023-09-19T09:37:26;5.38;;;2.13;;
42104;SDS011;70664;51.472;5.712;2023-09-19T09:39:56;12.07;;;2.10;;
42104;SDS011;70664;51.472;5.712;2023-09-19T09:42:41;12.38;;;2.30;;
42104;SDS011;70664;51.472;5.712;2023-09-19T09:45:18;15.70;;;2.40;;
42104;SDS011;70664;51.472;5.712;2023-09-19T09:48:01;10.20;;;2.58;;
42104;SDS011;70664;51.472;5.712;2023-09-19T09:55:58;11.18;;;2.38;;
42104;SDS011;70664;51.472;5.712;2023-09-19T09:58:32;13.48;;;2.67;;
42104;SDS011;70664;51.472;5.712;2023-09-19T10:01:00;11.82;;;2.58;;
42104;SDS011;70664;51.472;5.712;2023-09-19T10:03:34;13.25;;;2.40;;
42104;SDS011;70664;51.472;5.712;2023-09-19T10:06:15;10.20;;;2.33;;
42104;SDS011;70664;51.472;5.712;2023-09-19T10:11:46;9.45;;;2.15;;
42104;SDS011;70664;51.472;5.712;2023-09-19T10:14:21;11.73;;;2.30;;
42104;SDS011;70664;51.472;5.712;2023-09-19T10:16:56;17.02;;;2.80;;
42104;SDS011;70664;51.472;5.712;2023-09-19T10:22:22;12.27;;;2.40;;
42104;SDS011;70664;51.472;5.712;2023-09-19T10:24:53;8.68;;;2.53;;
42104;SDS011;70664;51.472;5.712;2023-09-19T10:27:20;7.45;;;2.30;;
42104;SDS011;70664;51.472;5.712;2023-09-19T10:29:51;9.32;;;1.90;;
42104;SDS011;70664;51.472;5.712;2023-09-19T10:32:22;8.55;;;2.53;;
42104;SDS011;70664;51.472;5.712;2023-09-19T10:34:48;9.75;;;2.25;;
42104;SDS011;70664;51.472;5.712;2023-09-19T10:37:18;8.18;;;2.22;;
42104;SDS011;70664;51.472;5.712;2023-09-19T10:39:50;10.80;;;2.28;;
42104;SDS011;70664;51.472;5.712;2023-09-19T10:42:19;14.57;;;2.38;;
42104;SDS011;70664;51.472;5.712;2023-09-19T10:44:47;9.65;;;2.50;;
42104;SDS011;70664;51.472;5.712;2023-09-19T10:49:46;6.70;;;1.85;;
42104;SDS011;70664;51.472;5.712;2023-09-19T10:52:13;10.05;;;2.58;;
42104;SDS011;70664;51.472;5.712;2023-09-19T10:54:48;12.50;;;2.60;;
42104;SDS011;70664;51.472;5.712;2023-09-19T11:00:05;8.40;;;1.95;;
42104;SDS011;70664;51.472;5.712;2023-09-19T11:30:49;6.85;;;1.90;;
42104;SDS011;70664;51.472;5.712;2023-09-19T11:33:32;7.10;;;1.90;;
42104;SDS011;70664;51.472;5.712;2023-09-19T11:36:15;7.97;;;1.75;;
42104;SDS011;70664;51.472;5.712;2023-09-19T11:43:53;5.97;;;1.90;;
42104;SDS011;70664;51.472;5.712;2023-09-19T11:46:35;10.20;;;2.10;;
42104;SDS011;70664;51.472;5.712;2023-09-19T11:49:28;8.00;;;1.67;;
42104;SDS011;70664;51.472;5.712;2023-09-19T11:51:59;8.73;;;1.92;;
42104;SDS011;70664;51.472;5.712;2023-09-19T11:54:30;8.40;;;1.65;;
42104;SDS011;70664;51.472;5.712;2023-09-19T11:56:57;8.80;;;2.00;;
42104;SDS011;70664;51.472;5.712;2023-09-19T11:59:31;10.50;;;2.22;;
42104;SDS011;70664;51.472;5.712;2023-09-19T12:02:00;5.93;;;1.70;;
42104;SDS011;70664;51.472;5.712;2023-09-19T12:07:12;10.15;;;1.80;;
42104;SDS011;70664;51.472;5.712;2023-09-19T12:09:48;8.02;;;1.83;;
42104;SDS011;70664;51.472;5.712;2023-09-19T12:12:22;7.28;;;1.83;;
42104;SDS011;70664;51.472;5.712;2023-09-19T12:14:53;5.90;;;1.77;;
42104;SDS011;70664;51.472;5.712;2023-09-19T12:17:23;9.05;;;2.20;;
42104;SDS011;70664;51.472;5.712;2023-09-19T12:20:04;6.25;;;1.88;;
42104;SDS011;70664;51.472;5.712;2023-09-19T12:22:41;6.22;;;2.08;;
42104;SDS011;70664;51.472;5.712;2023-09-19T12:25:08;6.75;;;2.08;;
42104;SDS011;70664;51.472;5.712;2023-09-19T12:30:15;6.13;;;1.90;;
42104;SDS011;70664;51.472;5.712;2023-09-19T12:32:46;5.95;;;1.67;;
42104;SDS011;70664;51.472;5.712;2023-09-19T12:35:29;7.00;;;1.55;;
42104;SDS011;70664;51.472;5.712;2023-09-19T12:38:00;5.70;;;1.63;;
42104;SDS011;70664;51.472;5.712;2023-09-19T12:40:28;7.88;;;1.58;;
42104;SDS011;70664;51.472;5.712;2023-09-19T12:42:58;8.40;;;1.60;;
42104;SDS011;70664;51.472;5.712;2023-09-19T12:45:27;4.95;;;1.63;;
42104;SDS011;70664;51.472;5.712;2023-09-19T12:51:10;6.20;;;1.58;;
42104;SDS011;70664;51.472;5.712;2023-09-19T12:56:15;7.50;;;1.77;;
42104;SDS011;70664;51.472;5.712;2023-09-19T12:58:53;5.32;;;1.42;;
42104;SDS011;70664;51.472;5.712;2023-09-19T13:01:20;5.80;;;1.30;;
42104;SDS011;70664;51.472;5.712;2023-09-19T13:04:12;3.45;;;1.10;;
42104;SDS011;70664;51.472;5.712;2023-09-19T13:06:51;4.13;;;1.40;;
42104;SDS011;70664;51.472;5.712;2023-09-19T13:09:21;3.70;;;1.25;;
42104;SDS011;70664;51.472;5.712;2023-09-19T13:11:59;4.45;;;1.13;;
42104;SDS011;70664;51.472;5.712;2023-09-19T13:14:27;7.38;;;1.20;;
42104;SDS011;70664;51.472;5.712;2023-09-19T13:16:57;4.22;;;0.90;;
42104;SDS011;70664;51.472;5.712;2023-09-19T13:19:36;7.05;;;1.15;;
42104;SDS011;70664;51.472;5.712;2023-09-19T13:22:38;7.45;;;1.60;;
42104;SDS011;70664;51.472;5.712;2023-09-19T13:25:19;4.72;;;0.98;;
42104;SDS011;70664;51.472;5.712;2023-09-19T13:27:56;3.33;;;1.08;;
42104;SDS011;70664;51.472;5.712;2023-09-19T13:30:23;9.95;;;1.55;;
42104;SDS011;70664;51.472;5.712;2023-09-19T13:33:10;4.03;;;1.15;;
42104;SDS011;70664;51.472;5.712;2023-09-19T13:35:38;4.63;;;1.35;;
42104;SDS011;70664;51.472;5.712;2023-09-19T13:38:07;3.08;;;1.08;;
42104;SDS011;70664;51.472;5.712;2023-09-19T13:40:36;7.07;;;1.50;;
42104;SDS011;70664;51.472;5.712;2023-09-19T13:43:04;6.78;;;1.45;;
42104;SDS011;70664;51.472;5.712;2023-09-19T13:45:31;5.10;;;1.27;;
42104;SDS011;70664;51.472;5.712;2023-09-19T13:47:57;5.55;;;1.27;;
42104;SDS011;70664;51.472;5.712;2023-09-19T13:50:26;7.47;;;1.23;;
42104;SDS011;70664;51.472;5.712;2023-09-19T13:52:54;9.95;;;1.00;;
42104;SDS011;70664;51.472;5.712;2023-09-19T13:55:20;3.83;;;0.93;;
42104;SDS011;70664;51.472;5.712;2023-09-19T13:57:47;5.70;;;1.30;;
42104;SDS011;70664;51.472;5.712;2023-09-19T14:00:15;5.57;;;1.30;;
42104;SDS011;70664;51.472;5.712;2023-09-19T14:02:42;3.95;;;1.10;;
42104;SDS011;70664;51.472;5.712;2023-09-19T14:05:11;7.45;;;1.30;;
42104;SDS011;70664;51.472;5.712;2023-09-19T14:07:40;4.97;;;1.30;;
42104;SDS011;70664;51.472;5.712;2023-09-19T14:10:07;4.35;;;1.00;;
42104;SDS011;70664;51.472;5.712;2023-09-19T14:12:36;5.50;;;1.10;;
42104;SDS011;70664;51.472;5.712;2023-09-19T14:15:03;4.53;;;1.15;;
42104;SDS011;70664;51.472;5.712;2023-09-19T14:17:30;5.35;;;1.27;;
42104;SDS011;70664;51.472;5.712;2023-09-19T14:19:56;5.75;;;1.00;;
42104;SDS011;70664;51.472;5.712;2023-09-19T14:22:21;3.75;;;1.10;;
42104;SDS011;70664;51.472;5.712;2023-09-19T14:24:47;3.22;;;0.90;;
42104;SDS011;70664;51.472;5.712;2023-09-19T14:27:13;3.75;;;1.20;;
42104;SDS011;70664;51.472;5.712;2023-09-19T14:29:39;3.28;;;1.10;;
42104;SDS011;70664;51.472;5.712;2023-09-19T14:32:06;6.03;;;1.20;;
42104;SDS011;70664;51.472;5.712;2023-09-19T14:34:32;6.70;;;1.25;;
42104;SDS011;70664;51.472;5.712;2023-09-19T14:36:58;5.45;;;1.08;;
42104;SDS011;70664;51.472;5.712;2023-09-19T14:39:24;6.70;;;1.10;;
42104;SDS011;70664;51.472;5.712;2023-09-19T14:41:50;3.55;;;1.00;;
42104;SDS011;70664;51.472;5.712;2023-09-19T14:44:16;4.20;;;0.95;;
42104;SDS011;70664;51.472;5.712;2023-09-19T14:46:42;2.60;;;0.93;;
42104;SDS011;70664;51.472;5.712;2023-09-19T14:49:09;6.90;;;1.20;;
42104;SDS011;70664;51.472;5.712;2023-09-19T14:51:37;3.90;;;1.10;;
42104;SDS011;70664;51.472;5.712;2023-09-19T14:54:05;3.10;;;1.05;;
42104;SDS011;70664;51.472;5.712;2023-09-19T14:56:33;6.20;;;1.17;;
42104;SDS011;70664;51.472;5.712;2023-09-19T14:58:59;6.15;;;0.93;;
42104;SDS011;70664;51.472;5.712;2023-09-19T15:01:25;5.07;;;0.98;;
42104;SDS011;70664;51.472;5.712;2023-09-19T15:03:51;2.60;;;0.82;;
42104;SDS011;70664;51.472;5.712;2023-09-19T15:06:19;5.45;;;1.10;;
42104;SDS011;70664;51.472;5.712;2023-09-19T15:08:46;4.03;;;0.90;;
42104;SDS011;70664;51.472;5.712;2023-09-19T15:11:13;4.05;;;1.13;;
42104;SDS011;70664;51.472;5.712;2023-09-19T15:13:42;4.35;;;1.00;;
42104;SDS011;70664;51.472;5.712;2023-09-19T15:16:09;5.00;;;1.20;;
42104;SDS011;70664;51.472;5.712;2023-09-19T15:18:39;4.75;;;1.00;;
42104;SDS011;70664;51.472;5.712;2023-09-19T15:21:07;6.00;;;1.30;;
42104;SDS011;70664;51.472;5.712;2023-09-19T15:23:37;7.57;;;1.17;;
42104;SDS011;70664;51.472;5.712;2023-09-19T15:26:05;4.05;;;1.05;;
42104;SDS011;70664;51.472;5.712;2023-09-19T15:28:39;3.80;;;1.17;;
42104;SDS011;70664;51.472;5.712;2023-09-19T15:31:06;4.30;;;0.82;;
42104;SDS011;70664;51.472;5.712;2023-09-19T15:33:33;4.03;;;0.85;;
42104;SDS011;70664;51.472;5.712;2023-09-19T15:38:30;2.30;;;0.95;;
42104;SDS011;70664;51.472;5.712;2023-09-19T15:40:59;2.67;;;0.98;;
42104;SDS011;70664;51.472;5.712;2023-09-19T15:43:25;2.90;;;0.85;;
42104;SDS011;70664;51.472;5.712;2023-09-19T15:45:51;4.38;;;0.93;;
42104;SDS011;70664;51.472;5.712;2023-09-19T15:48:17;3.42;;;0.80;;
42104;SDS011;70664;51.472;5.712;2023-09-19T15:50:46;5.97;;;1.23;;
42104;SDS011;70664;51.472;5.712;2023-09-19T15:53:12;4.45;;;1.02;;
42104;SDS011;70664;51.472;5.712;2023-09-19T15:55:38;4.70;;;1.30;;
42104;SDS011;70664;51.472;5.712;2023-09-19T15:58:05;4.05;;;1.00;;
42104;SDS011;70664;51.472;5.712;2023-09-19T16:00:31;5.28;;;1.20;;
42104;SDS011;70664;51.472;5.712;2023-09-19T16:03:01;1.90;;;0.93;;
42104;SDS011;70664;51.472;5.712;2023-09-19T16:05:28;7.63;;;1.17;;
42104;SDS011;70664;51.472;5.712;2023-09-19T16:08:05;2.60;;;0.83;;
42104;SDS011;70664;51.472;5.712;2023-09-19T16:10:36;4.55;;;1.27;;
42104;SDS011;70664;51.472;5.712;2023-09-19T16:13:03;4.65;;;1.20;;
42104;SDS011;70664;51.472;5.712;2023-09-19T16:15:29;3.70;;;1.20;;
42104;SDS011;70664;51.472;5.712;2023-09-19T16:17:55;9.65;;;2.10;;
42104;SDS011;70664;51.472;5.712;2023-09-19T16:20:21;17.73;;;5.72;;
42104;SDS011;70664;51.472;5.712;2023-09-19T16:22:48;14.30;;;5.65;;
42104;SDS011;70664;51.472;5.712;2023-09-19T16:25:14;15.48;;;5.53;;
42104;SDS011;70664;51.472;5.712;2023-09-19T16:27:40;17.42;;;5.80;;